sensor_id;sensor_type;location;lat;lon;timestamp;pressure;altitude;pressure_sealevel;temperature;humidity
74403;BME280;62837;51.082;13.744;2023-02-23T00:00:43;100097.77;;;7.98;70.61
74403;BME280;62837;51.082;13.744;2023-02-23T00:03:15;100096.71;;;7.90;70.58
74403;BME280;62837;51.082;13.744;2023-02-23T00:05:46;100097.39;;;7.85;70.82
74403;BME280;62837;51.082;13.744;2023-02-23T00:08:17;100096.47;;;7.88;74.61
74403;BME280;62837;51.082;13.744;2023-02-23T00:10:48;100095.90;;;8.07;77.02
74403;BME280;62837;51.082;13.744;2023-02-23T00:13:27;100092.87;;;8.29;77.26
74403;BME280;62837;51.082;13.744;2023-02-23T00:15:58;100096.47;;;8.50;76.80
74403;BME280;62837;51.082;13.744;2023-02-23T00:18:31;100091.86;;;8.61;74.22
74403;BME280;62837;51.082;13.744;2023-02-23T00:21:16;100091.68;;;8.64;73.36
74403;BME280;62837;51.082;13.744;2023-02-23T00:23:51;100084.21;;;8.63;72.62
74403;BME280;62837;51.082;13.744;2023-02-23T00:26:24;100083.20;;;8.62;72.68
74403;BME280;62837;51.082;13.744;2023-02-23T00:28:58;100081.39;;;8.61;72.84
74403;BME280;62837;51.082;13.744;2023-02-23T00:31:29;100084.23;;;8.64;71.99
74403;BME280;62837;51.082;13.744;2023-02-23T00:34:01;100083.20;;;8.62;72.64
74403;BME280;62837;51.082;13.744;2023-02-23T00:36:34;100084.64;;;8.66;72.41
74403;BME280;62837;51.082;13.744;2023-02-23T00:39:07;100085.85;;;8.71;71.97
74403;BME280;62837;51.082;13.744;2023-02-23T00:41:47;100084.16;;;8.76;72.66
74403;BME280;62837;51.082;13.744;2023-02-23T00:44:19;100080.89;;;8.82;72.79
74403;BME280;62837;51.082;13.744;2023-02-23T00:46:51;100086.14;;;8.85;71.35
74403;BME280;62837;51.082;13.744;2023-02-23T00:49:23;100081.52;;;8.83;71.08
74403;BME280;62837;51.082;13.744;2023-02-23T00:51:54;100086.32;;;8.81;71.44
74403;BME280;62837;51.082;13.744;2023-02-23T00:54:25;100088.46;;;8.82;71.90
74403;BME280;62837;51.082;13.744;2023-02-23T00:56:56;100086.70;;;8.87;71.93
74403;BME280;62837;51.082;13.744;2023-02-23T00:59:26;100089.51;;;8.90;71.68
74403;BME280;62837;51.082;13.744;2023-02-23T01:01:58;100085.95;;;8.93;71.05
74403;BME280;62837;51.082;13.744;2023-02-23T01:04:29;100082.52;;;8.83;70.48
74403;BME280;62837;51.082;13.744;2023-02-23T01:07:00;100087.23;;;8.81;70.42
74403;BME280;62837;51.082;13.744;2023-02-23T01:09:34;100084.85;;;8.74;70.55
74403;BME280;62837;51.082;13.744;2023-02-23T01:12:07;100084.83;;;8.72;70.67
74403;BME280;62837;51.082;13.744;2023-02-23T01:14:38;100082.69;;;8.68;70.10
74403;BME280;62837;51.082;13.744;2023-02-23T01:17:12;100080.54;;;8.63;70.14
74403;BME280;62837;51.082;13.744;2023-02-23T01:19:44;100078.48;;;8.57;69.55
74403;BME280;62837;51.082;13.744;2023-02-23T01:22:15;100080.27;;;8.52;69.99
74403;BME280;62837;51.082;13.744;2023-02-23T01:24:46;100081.05;;;8.48;70.03
74403;BME280;62837;51.082;13.744;2023-02-23T01:27:17;100075.41;;;8.45;70.31
74403;BME280;62837;51.082;13.744;2023-02-23T01:29:48;100074.79;;;8.43;69.94
74403;BME280;62837;51.082;13.744;2023-02-23T01:32:19;100072.46;;;8.42;69.93
74403;BME280;62837;51.082;13.744;2023-02-23T01:34:50;100074.80;;;8.36;70.41
74403;BME280;62837;51.082;13.744;2023-02-23T01:37:20;100073.63;;;8.39;70.87
74403;BME280;62837;51.082;13.744;2023-02-23T01:39:52;100068.20;;;8.42;70.58
74403;BME280;62837;51.082;13.744;2023-02-23T01:42:24;100064.68;;;8.41;69.87
74403;BME280;62837;51.082;13.744;2023-02-23T01:45:31;100061.36;;;8.39;70.28
74403;BME280;62837;51.082;13.744;2023-02-23T01:48:06;100061.29;;;8.43;70.27
74403;BME280;62837;51.082;13.744;2023-02-23T01:50:44;100060.80;;;8.46;70.47
74403;BME280;62837;51.082;13.744;2023-02-23T01:53:17;100054.54;;;8.45;69.80
74403;BME280;62837;51.082;13.744;2023-02-23T01:55:51;100051.71;;;8.42;70.40
74403;BME280;62837;51.082;13.744;2023-02-23T01:58:25;100047.40;;;8.44;70.74
74403;BME280;62837;51.082;13.744;2023-02-23T02:00:58;100045.15;;;8.44;69.95
74403;BME280;62837;51.082;13.744;2023-02-23T02:03:35;100040.41;;;8.38;69.59
74403;BME280;62837;51.082;13.744;2023-02-23T02:06:09;100039.21;;;8.31;69.63
74403;BME280;62837;51.082;13.744;2023-02-23T02:08:46;100038.30;;;8.26;69.86
74403;BME280;62837;51.082;13.744;2023-02-23T02:11:18;100038.34;;;8.25;70.37
74403;BME280;62837;51.082;13.744;2023-02-23T02:14:02;100039.98;;;8.31;71.04
74403;BME280;62837;51.082;13.744;2023-02-23T02:16:53;100035.38;;;8.39;70.72
74403;BME280;62837;51.082;13.744;2023-02-23T02:22:58;100029.39;;;8.33;69.48
74403;BME280;62837;51.082;13.744;2023-02-23T02:25:44;100027.34;;;8.27;70.31
74403;BME280;62837;51.082;13.744;2023-02-23T02:28:31;100030.16;;;8.24;70.13
74403;BME280;62837;51.082;13.744;2023-02-23T02:31:34;100029.86;;;8.23;70.37
74403;BME280;62837;51.082;13.744;2023-02-23T02:37:20;100027.77;;;8.39;70.55
74403;BME280;62837;51.082;13.744;2023-02-23T02:40:01;100023.30;;;8.45;70.98
74403;BME280;62837;51.082;13.744;2023-02-23T02:45:50;100021.82;;;8.57;70.40
74403;BME280;62837;51.082;13.744;2023-02-23T02:48:32;100025.69;;;8.60;70.75
74403;BME280;62837;51.082;13.744;2023-02-23T02:51:12;100025.62;;;8.64;70.32
74403;BME280;62837;51.082;13.744;2023-02-23T02:53:52;100025.94;;;8.62;69.87
74403;BME280;62837;51.082;13.744;2023-02-23T02:56:27;100023.93;;;8.60;70.02
74403;BME280;62837;51.082;13.744;2023-02-23T02:58:58;100025.86;;;8.60;70.13
74403;BME280;62837;51.082;13.744;2023-02-23T03:01:30;100023.55;;;8.61;69.92
74403;BME280;62837;51.082;13.744;2023-02-23T03:04:22;100014.00;;;8.55;69.64
74403;BME280;62837;51.082;13.744;2023-02-23T03:07:15;100010.07;;;8.43;69.48
74403;BME280;62837;51.082;13.744;2023-02-23T03:10:13;100003.88;;;8.35;70.44
74403;BME280;62837;51.082;13.744;2023-02-23T03:13:16;100004.45;;;8.38;70.78
74403;BME280;62837;51.082;13.744;2023-02-23T03:16:14;100004.94;;;8.40;71.01
74403;BME280;62837;51.082;13.744;2023-02-23T03:19:12;100001.96;;;8.44;70.72
74403;BME280;62837;51.082;13.744;2023-02-23T03:22:03;100000.17;;;8.45;70.91
74403;BME280;62837;51.082;13.744;2023-02-23T03:24:57;100002.64;;;8.49;71.12
74403;BME280;62837;51.082;13.744;2023-02-23T03:27:53;100006.58;;;8.57;71.39
74403;BME280;62837;51.082;13.744;2023-02-23T03:30:50;100007.01;;;8.61;70.86
74403;BME280;62837;51.082;13.744;2023-02-23T03:33:54;100005.11;;;8.54;69.90
74403;BME280;62837;51.082;13.744;2023-02-23T03:36:49;100001.48;;;8.44;70.15
74403;BME280;62837;51.082;13.744;2023-02-23T03:39:44;100000.02;;;8.37;70.25
74403;BME280;62837;51.082;13.744;2023-02-23T03:42:36;100000.48;;;8.34;70.58
74403;BME280;62837;51.082;13.744;2023-02-23T03:45:26;99997.61;;;8.37;70.80
74403;BME280;62837;51.082;13.744;2023-02-23T03:48:14;99997.13;;;8.42;71.07
74403;BME280;62837;51.082;13.744;2023-02-23T03:51:07;99993.88;;;8.45;70.54
74403;BME280;62837;51.082;13.744;2023-02-23T03:54:02;99996.02;;;8.46;70.74
74403;BME280;62837;51.082;13.744;2023-02-23T03:56:57;100000.54;;;8.48;70.62
74403;BME280;62837;51.082;13.744;2023-02-23T03:59:49;100005.73;;;8.51;70.78
74403;BME280;62837;51.082;13.744;2023-02-23T04:02:46;100005.91;;;8.53;70.68
74403;BME280;62837;51.082;13.744;2023-02-23T04:05:39;100009.45;;;8.54;70.64
74403;BME280;62837;51.082;13.744;2023-02-23T04:08:31;100017.02;;;8.51;69.91
74403;BME280;62837;51.082;13.744;2023-02-23T04:11:26;100014.30;;;8.32;69.84
74403;BME280;62837;51.082;13.744;2023-02-23T04:14:17;100019.95;;;8.19;70.90
74403;BME280;62837;51.082;13.744;2023-02-23T04:16:48;100018.27;;;8.20;71.14
74403;BME280;62837;51.082;13.744;2023-02-23T04:19:18;100020.77;;;8.22;71.38
74403;BME280;62837;51.082;13.744;2023-02-23T04:21:49;100024.98;;;8.30;71.64
74403;BME280;62837;51.082;13.744;2023-02-23T04:24:20;100022.36;;;8.33;70.94
74403;BME280;62837;51.082;13.744;2023-02-23T04:26:51;100025.23;;;8.34;71.17
74403;BME280;62837;51.082;13.744;2023-02-23T04:29:22;100031.52;;;8.36;71.18
74403;BME280;62837;51.082;13.744;2023-02-23T04:31:52;100027.52;;;8.36;71.48
74403;BME280;62837;51.082;13.744;2023-02-23T04:34:23;100024.73;;;8.37;71.16
74403;BME280;62837;51.082;13.744;2023-02-23T04:36:54;100027.50;;;8.32;70.87
74403;BME280;62837;51.082;13.744;2023-02-23T04:39:25;100028.23;;;8.19;70.93
74403;BME280;62837;51.082;13.744;2023-02-23T04:41:56;100028.09;;;8.17;71.75
74403;BME280;62837;51.082;13.744;2023-02-23T04:44:26;100022.23;;;8.21;71.77
74403;BME280;62837;51.082;13.744;2023-02-23T04:46:58;100021.00;;;8.29;71.68
74403;BME280;62837;51.082;13.744;2023-02-23T04:49:28;100024.21;;;8.35;71.75
74403;BME280;62837;51.082;13.744;2023-02-23T04:51:59;100024.31;;;8.32;71.39
74403;BME280;62837;51.082;13.744;2023-02-23T04:54:30;100022.89;;;8.25;71.37
74403;BME280;62837;51.082;13.744;2023-02-23T04:57:00;100024.63;;;8.16;71.65
74403;BME280;62837;51.082;13.744;2023-02-23T04:59:31;100020.95;;;8.13;71.70
74403;BME280;62837;51.082;13.744;2023-02-23T05:02:02;100015.41;;;8.11;71.81
74403;BME280;62837;51.082;13.744;2023-02-23T05:04:33;100019.04;;;8.12;72.18
74403;BME280;62837;51.082;13.744;2023-02-23T05:07:04;100017.86;;;8.17;72.08
74403;BME280;62837;51.082;13.744;2023-02-23T05:09:35;100018.10;;;8.24;72.20
74403;BME280;62837;51.082;13.744;2023-02-23T05:12:07;100014.42;;;8.30;72.11
74403;BME280;62837;51.082;13.744;2023-02-23T05:14:37;100013.80;;;8.36;71.90
74403;BME280;62837;51.082;13.744;2023-02-23T05:17:08;100013.98;;;8.41;71.93
74403;BME280;62837;51.082;13.744;2023-02-23T05:19:39;100016.84;;;8.45;72.08
74403;BME280;62837;51.082;13.744;2023-02-23T05:22:10;100016.30;;;8.51;72.06
74403;BME280;62837;51.082;13.744;2023-02-23T05:24:41;100014.46;;;8.55;71.46
74403;BME280;62837;51.082;13.744;2023-02-23T05:27:12;100020.14;;;8.54;71.00
74403;BME280;62837;51.082;13.744;2023-02-23T05:29:44;100015.69;;;8.46;70.83
74403;BME280;62837;51.082;13.744;2023-02-23T05:32:14;100017.39;;;8.38;70.86
74403;BME280;62837;51.082;13.744;2023-02-23T05:34:45;100016.51;;;8.32;70.86
74403;BME280;62837;51.082;13.744;2023-02-23T05:37:16;100016.23;;;8.29;71.15
74403;BME280;62837;51.082;13.744;2023-02-23T05:39:48;100017.55;;;8.28;71.02
74403;BME280;62837;51.082;13.744;2023-02-23T05:42:19;100020.55;;;8.22;70.44
74403;BME280;62837;51.082;13.744;2023-02-23T05:44:49;100022.70;;;8.11;70.70
74403;BME280;62837;51.082;13.744;2023-02-23T05:47:20;100021.61;;;8.09;71.89
74403;BME280;62837;51.082;13.744;2023-02-23T05:49:51;100021.17;;;8.13;71.48
74403;BME280;62837;51.082;13.744;2023-02-23T05:52:22;100023.92;;;8.05;70.95
74403;BME280;62837;51.082;13.744;2023-02-23T05:54:52;100025.67;;;7.88;71.22
74403;BME280;62837;51.082;13.744;2023-02-23T05:57:23;100028.34;;;7.72;72.10
74403;BME280;62837;51.082;13.744;2023-02-23T05:59:54;100031.24;;;7.73;72.58
74403;BME280;62837;51.082;13.744;2023-02-23T06:02:25;100023.54;;;7.76;72.39
74403;BME280;62837;51.082;13.744;2023-02-23T06:04:56;100032.82;;;7.89;72.45
74403;BME280;62837;51.082;13.744;2023-02-23T06:07:27;100037.15;;;7.93;72.43
74403;BME280;62837;51.082;13.744;2023-02-23T06:09:58;100036.46;;;7.99;72.03
74403;BME280;62837;51.082;13.744;2023-02-23T06:12:28;100038.66;;;8.03;72.44
74403;BME280;62837;51.082;13.744;2023-02-23T06:14:59;100037.38;;;8.01;71.34
74403;BME280;62837;51.082;13.744;2023-02-23T06:17:30;100039.42;;;7.84;71.14
74403;BME280;62837;51.082;13.744;2023-02-23T06:20:01;100049.03;;;7.75;72.32
74403;BME280;62837;51.082;13.744;2023-02-23T06:22:33;100041.95;;;7.78;72.64
74403;BME280;62837;51.082;13.744;2023-02-23T06:25:05;100041.40;;;7.89;73.03
74403;BME280;62837;51.082;13.744;2023-02-23T06:27:41;100048.91;;;7.93;72.48
74403;BME280;62837;51.082;13.744;2023-02-23T06:30:14;100054.44;;;7.99;72.08
74403;BME280;62837;51.082;13.744;2023-02-23T06:32:47;100058.52;;;8.01;71.92
74403;BME280;62837;51.082;13.744;2023-02-23T06:35:20;100056.88;;;8.04;72.18
74403;BME280;62837;51.082;13.744;2023-02-23T06:37:52;100058.35;;;8.04;72.04
74403;BME280;62837;51.082;13.744;2023-02-23T06:40:23;100057.50;;;8.06;73.63
74403;BME280;62837;51.082;13.744;2023-02-23T06:42:54;100058.61;;;8.18;75.47
74403;BME280;62837;51.082;13.744;2023-02-23T06:45:25;100061.54;;;8.33;73.24
74403;BME280;62837;51.082;13.744;2023-02-23T06:47:55;100057.65;;;8.33;71.78
74403;BME280;62837;51.082;13.744;2023-02-23T06:50:29;100062.63;;;8.33;72.46
74403;BME280;62837;51.082;13.744;2023-02-23T06:53:00;100058.08;;;8.33;71.46
74403;BME280;62837;51.082;13.744;2023-02-23T06:55:31;100061.33;;;8.24;71.29
74403;BME280;62837;51.082;13.744;2023-02-23T06:58:02;100061.60;;;8.16;71.11
74403;BME280;62837;51.082;13.744;2023-02-23T07:00:33;100057.48;;;8.08;71.15
74403;BME280;62837;51.082;13.744;2023-02-23T07:03:04;100064.46;;;8.06;71.60
74403;BME280;62837;51.082;13.744;2023-02-23T07:05:35;100063.52;;;8.05;71.68
74403;BME280;62837;51.082;13.744;2023-02-23T07:08:07;100065.13;;;8.06;71.78
74403;BME280;62837;51.082;13.744;2023-02-23T07:10:37;100066.47;;;8.09;71.87
74403;BME280;62837;51.082;13.744;2023-02-23T07:13:08;100064.23;;;8.13;71.88
74403;BME280;62837;51.082;13.744;2023-02-23T07:15:41;100064.73;;;8.17;72.04
74403;BME280;62837;51.082;13.744;2023-02-23T07:18:12;100061.67;;;8.21;71.91
74403;BME280;62837;51.082;13.744;2023-02-23T07:20:42;100064.31;;;8.26;71.92
74403;BME280;62837;51.082;13.744;2023-02-23T07:23:13;100065.86;;;8.28;71.82
74403;BME280;62837;51.082;13.744;2023-02-23T07:25:44;100066.59;;;8.31;72.15
74403;BME280;62837;51.082;13.744;2023-02-23T07:28:15;100064.52;;;8.37;71.88
74403;BME280;62837;51.082;13.744;2023-02-23T07:30:46;100064.40;;;8.42;71.85
74403;BME280;62837;51.082;13.744;2023-02-23T07:33:18;100067.43;;;8.47;71.86
74403;BME280;62837;51.082;13.744;2023-02-23T07:35:49;100063.23;;;8.52;71.51
74403;BME280;62837;51.082;13.744;2023-02-23T07:38:20;100064.97;;;8.55;71.46
74403;BME280;62837;51.082;13.744;2023-02-23T07:40:51;100068.39;;;8.60;71.63
74403;BME280;62837;51.082;13.744;2023-02-23T07:43:23;100070.81;;;8.66;71.44
74403;BME280;62837;51.082;13.744;2023-02-23T07:45:53;100069.46;;;8.72;71.13
74403;BME280;62837;51.082;13.744;2023-02-23T07:48:24;100073.46;;;8.76;71.32
74403;BME280;62837;51.082;13.744;2023-02-23T07:50:56;100070.08;;;8.81;70.92
74403;BME280;62837;51.082;13.744;2023-02-23T07:53:26;100069.55;;;8.86;70.77
74403;BME280;62837;51.082;13.744;2023-02-23T07:55:58;100073.23;;;8.92;70.70
74403;BME280;62837;51.082;13.744;2023-02-23T07:58:29;100068.40;;;8.91;70.69
74403;BME280;62837;51.082;13.744;2023-02-23T08:01:00;100074.89;;;9.01;70.60
74403;BME280;62837;51.082;13.744;2023-02-23T08:03:31;100081.15;;;9.07;70.49
74403;BME280;62837;51.082;13.744;2023-02-23T08:06:01;100082.41;;;9.13;70.12
74403;BME280;62837;51.082;13.744;2023-02-23T08:08:32;100082.95;;;9.13;69.87
74403;BME280;62837;51.082;13.744;2023-02-23T08:11:06;100083.64;;;9.15;69.80
74403;BME280;62837;51.082;13.744;2023-02-23T08:13:35;100083.88;;;9.16;69.97
74403;BME280;62837;51.082;13.744;2023-02-23T08:16:08;100083.64;;;9.19;69.96
74403;BME280;62837;51.082;13.744;2023-02-23T08:18:40;100087.04;;;9.19;69.67
74403;BME280;62837;51.082;13.744;2023-02-23T08:21:11;100080.69;;;9.22;69.54
74403;BME280;62837;51.082;13.744;2023-02-23T08:23:42;100075.90;;;9.24;69.50
74403;BME280;62837;51.082;13.744;2023-02-23T08:26:13;100082.75;;;9.28;69.48
74403;BME280;62837;51.082;13.744;2023-02-23T08:28:44;100081.79;;;9.36;69.43
74403;BME280;62837;51.082;13.744;2023-02-23T08:31:16;100079.02;;;9.44;69.17
74403;BME280;62837;51.082;13.744;2023-02-23T08:33:50;100076.89;;;9.51;69.19
74403;BME280;62837;51.082;13.744;2023-02-23T08:36:22;100079.36;;;9.56;68.98
74403;BME280;62837;51.082;13.744;2023-02-23T08:38:53;100082.41;;;9.59;68.95
74403;BME280;62837;51.082;13.744;2023-02-23T08:41:23;100079.75;;;9.63;68.78
74403;BME280;62837;51.082;13.744;2023-02-23T08:43:56;100078.14;;;9.66;68.72
74403;BME280;62837;51.082;13.744;2023-02-23T08:46:27;100084.39;;;9.71;68.55
74403;BME280;62837;51.082;13.744;2023-02-23T08:48:58;100083.21;;;9.75;68.31
74403;BME280;62837;51.082;13.744;2023-02-23T08:51:29;100084.08;;;9.79;68.41
74403;BME280;62837;51.082;13.744;2023-02-23T08:54:01;100081.75;;;9.84;68.32
74403;BME280;62837;51.082;13.744;2023-02-23T08:56:32;100082.77;;;9.88;68.12
74403;BME280;62837;51.082;13.744;2023-02-23T08:59:02;100085.16;;;9.92;68.39
74403;BME280;62837;51.082;13.744;2023-02-23T09:01:33;100082.11;;;9.93;68.26
74403;BME280;62837;51.082;13.744;2023-02-23T09:04:06;100084.77;;;9.97;68.20
74403;BME280;62837;51.082;13.744;2023-02-23T09:06:37;100085.34;;;9.99;67.93
74403;BME280;62837;51.082;13.744;2023-02-23T09:09:09;100082.05;;;10.01;67.92
74403;BME280;62837;51.082;13.744;2023-02-23T09:11:39;100087.84;;;10.03;67.98
74403;BME280;62837;51.082;13.744;2023-02-23T09:14:10;100087.81;;;10.06;67.68
74403;BME280;62837;51.082;13.744;2023-02-23T09:16:41;100085.89;;;10.06;67.72
74403;BME280;62837;51.082;13.744;2023-02-23T09:19:12;100086.41;;;10.09;67.89
74403;BME280;62837;51.082;13.744;2023-02-23T09:21:43;100089.48;;;10.12;67.82
74403;BME280;62837;51.082;13.744;2023-02-23T09:24:14;100085.48;;;10.15;67.68
74403;BME280;62837;51.082;13.744;2023-02-23T09:26:46;100083.17;;;10.20;67.77
74403;BME280;62837;51.082;13.744;2023-02-23T09:29:17;100082.81;;;10.26;67.59
74403;BME280;62837;51.082;13.744;2023-02-23T09:31:48;100083.02;;;10.29;67.47
74403;BME280;62837;51.082;13.744;2023-02-23T09:34:21;100082.05;;;10.32;67.32
74403;BME280;62837;51.082;13.744;2023-02-23T09:36:52;100081.52;;;10.38;67.14
74403;BME280;62837;51.082;13.744;2023-02-23T09:39:24;100082.77;;;10.44;67.11
74403;BME280;62837;51.082;13.744;2023-02-23T09:45:19;100084.81;;;10.55;66.76
74403;BME280;62837;51.082;13.744;2023-02-23T09:50:53;100085.30;;;10.73;66.58
74403;BME280;62837;51.082;13.744;2023-02-23T09:53:31;100075.77;;;10.82;66.56
74403;BME280;62837;51.082;13.744;2023-02-23T09:56:09;100077.46;;;10.92;66.42
74403;BME280;62837;51.082;13.744;2023-02-23T09:58:41;100077.89;;;11.03;66.38
74403;BME280;62837;51.082;13.744;2023-02-23T10:01:48;100077.32;;;11.13;65.97
74403;BME280;62837;51.082;13.744;2023-02-23T10:04:24;100080.28;;;11.26;65.51
74403;BME280;62837;51.082;13.744;2023-02-23T10:06:59;100079.64;;;11.36;65.37
74403;BME280;62837;51.082;13.744;2023-02-23T10:09:45;100079.95;;;11.48;65.29
74403;BME280;62837;51.082;13.744;2023-02-23T10:12:25;100081.90;;;11.62;64.96
74403;BME280;62837;51.082;13.744;2023-02-23T10:15:15;100075.71;;;11.79;64.46
74403;BME280;62837;51.082;13.744;2023-02-23T10:17:57;100073.23;;;12.07;63.37
74403;BME280;62837;51.082;13.744;2023-02-23T10:20:37;100074.98;;;12.30;63.11
74403;BME280;62837;51.082;13.744;2023-02-23T10:23:16;100070.70;;;12.49;62.61
74403;BME280;62837;51.082;13.744;2023-02-23T10:25:49;100068.77;;;12.66;62.45
74403;BME280;62837;51.082;13.744;2023-02-23T10:28:22;100063.58;;;12.73;61.50
74403;BME280;62837;51.082;13.744;2023-02-23T10:30:54;100067.37;;;12.75;61.41
74403;BME280;62837;51.082;13.744;2023-02-23T10:33:30;100064.45;;;12.74;61.19
74403;BME280;62837;51.082;13.744;2023-02-23T10:36:12;100061.36;;;12.74;61.23
74403;BME280;62837;51.082;13.744;2023-02-23T10:38:44;100061.91;;;12.72;60.99
74403;BME280;62837;51.082;13.744;2023-02-23T10:41:15;100064.19;;;12.70;60.93
74403;BME280;62837;51.082;13.744;2023-02-23T10:43:47;100063.31;;;12.69;61.02
74403;BME280;62837;51.082;13.744;2023-02-23T10:46:22;100062.27;;;12.70;61.11
74403;BME280;62837;51.082;13.744;2023-02-23T10:48:55;100058.94;;;12.71;61.22
74403;BME280;62837;51.082;13.744;2023-02-23T10:51:31;100057.55;;;12.74;61.23
74403;BME280;62837;51.082;13.744;2023-02-23T10:54:37;100054.66;;;12.75;61.18
74403;BME280;62837;51.082;13.744;2023-02-23T10:57:20;100053.52;;;12.73;60.92
74403;BME280;62837;51.082;13.744;2023-02-23T11:00:20;100050.43;;;12.72;60.87
74403;BME280;62837;51.082;13.744;2023-02-23T11:02:57;100045.09;;;12.71;61.30
74403;BME280;62837;51.082;13.744;2023-02-23T11:05:35;100043.42;;;12.73;61.34
74403;BME280;62837;51.082;13.744;2023-02-23T11:08:20;100042.52;;;12.77;61.10
74403;BME280;62837;51.082;13.744;2023-02-23T11:10:56;100042.89;;;12.82;60.82
74403;BME280;62837;51.082;13.744;2023-02-23T11:13:33;100040.73;;;12.86;60.77
74403;BME280;62837;51.082;13.744;2023-02-23T11:16:07;100032.88;;;12.91;60.77
74403;BME280;62837;51.082;13.744;2023-02-23T11:18:41;100029.08;;;12.97;61.08
74403;BME280;62837;51.082;13.744;2023-02-23T11:21:20;100029.83;;;13.03;60.94
74403;BME280;62837;51.082;13.744;2023-02-23T11:23:53;100023.67;;;13.09;60.56
74403;BME280;62837;51.082;13.744;2023-02-23T11:26:34;100018.71;;;13.13;60.36
74403;BME280;62837;51.082;13.744;2023-02-23T11:29:26;100016.42;;;13.17;59.66
74403;BME280;62837;51.082;13.744;2023-02-23T11:32:05;100012.14;;;13.14;59.84
74403;BME280;62837;51.082;13.744;2023-02-23T11:34:39;100012.39;;;13.17;59.94
74403;BME280;62837;51.082;13.744;2023-02-23T11:37:20;100009.71;;;13.21;59.96
74403;BME280;62837;51.082;13.744;2023-02-23T11:39:53;100009.55;;;13.29;60.02
74403;BME280;62837;51.082;13.744;2023-02-23T11:42:26;100003.95;;;13.41;59.93
74403;BME280;62837;51.082;13.744;2023-02-23T11:45:13;100000.85;;;13.56;59.53
74403;BME280;62837;51.082;13.744;2023-02-23T11:47:47;99999.62;;;13.72;59.17
74403;BME280;62837;51.082;13.744;2023-02-23T11:50:24;99994.58;;;13.87;59.20
74403;BME280;62837;51.082;13.744;2023-02-23T11:53:00;99990.00;;;14.02;58.76
74403;BME280;62837;51.082;13.744;2023-02-23T11:55:34;99986.90;;;14.08;57.79
74403;BME280;62837;51.082;13.744;2023-02-23T11:58:16;99983.42;;;14.13;58.09
74403;BME280;62837;51.082;13.744;2023-02-23T12:00:59;99983.82;;;14.23;58.13
74403;BME280;62837;51.082;13.744;2023-02-23T12:03:33;99982.00;;;14.32;58.12
74403;BME280;62837;51.082;13.744;2023-02-23T12:06:05;99980.05;;;14.41;58.40
74403;BME280;62837;51.082;13.744;2023-02-23T12:08:41;99972.73;;;14.51;58.13
74403;BME280;62837;51.082;13.744;2023-02-23T12:11:15;99974.16;;;14.61;57.92
74403;BME280;62837;51.082;13.744;2023-02-23T12:13:51;99974.09;;;14.66;57.39
74403;BME280;62837;51.082;13.744;2023-02-23T12:16:27;99969.60;;;14.68;57.40
74403;BME280;62837;51.082;13.744;2023-02-23T12:19:01;99964.67;;;14.68;57.81
74403;BME280;62837;51.082;13.744;2023-02-23T12:21:36;99963.42;;;14.70;57.96
74403;BME280;62837;51.082;13.744;2023-02-23T12:24:17;99961.07;;;14.68;58.18
74403;BME280;62837;51.082;13.744;2023-02-23T12:26:52;99962.03;;;14.65;58.29
74403;BME280;62837;51.082;13.744;2023-02-23T12:29:30;99958.77;;;14.61;58.47
74403;BME280;62837;51.082;13.744;2023-02-23T12:32:10;99961.48;;;14.57;57.93
74403;BME280;62837;51.082;13.744;2023-02-23T12:34:48;99956.27;;;14.50;58.13
74403;BME280;62837;51.082;13.744;2023-02-23T12:37:30;99955.02;;;14.44;58.30
74403;BME280;62837;51.082;13.744;2023-02-23T12:40:13;99953.37;;;14.42;58.18
74403;BME280;62837;51.082;13.744;2023-02-23T12:42:51;99951.64;;;14.40;58.12
74403;BME280;62837;51.082;13.744;2023-02-23T12:45:31;99948.50;;;14.36;58.28
74403;BME280;62837;51.082;13.744;2023-02-23T12:48:13;99944.63;;;14.30;58.74
74403;BME280;62837;51.082;13.744;2023-02-23T12:50:52;99947.85;;;14.25;59.14
74403;BME280;62837;51.082;13.744;2023-02-23T12:53:26;99945.43;;;14.22;59.14
74403;BME280;62837;51.082;13.744;2023-02-23T12:56:16;99947.42;;;14.21;58.96
74403;BME280;62837;51.082;13.744;2023-02-23T12:58:53;99941.14;;;14.21;58.79
74403;BME280;62837;51.082;13.744;2023-02-23T13:01:28;99936.69;;;14.24;58.57
74403;BME280;62837;51.082;13.744;2023-02-23T13:07:20;99929.73;;;14.27;58.65
74403;BME280;62837;51.082;13.744;2023-02-23T13:09:59;99928.52;;;14.27;58.53
74403;BME280;62837;51.082;13.744;2023-02-23T13:12:43;99929.05;;;14.29;58.37
74403;BME280;62837;51.082;13.744;2023-02-23T13:15:27;99929.40;;;14.32;58.29
74403;BME280;62837;51.082;13.744;2023-02-23T13:18:04;99926.87;;;14.30;58.72
74403;BME280;62837;51.082;13.744;2023-02-23T13:20:42;99925.61;;;14.29;58.87
74403;BME280;62837;51.082;13.744;2023-02-23T13:23:23;99930.50;;;14.29;59.19
74403;BME280;62837;51.082;13.744;2023-02-23T13:26:00;99927.23;;;14.28;59.05
74403;BME280;62837;51.082;13.744;2023-02-23T13:28:41;99927.92;;;14.26;59.27
74403;BME280;62837;51.082;13.744;2023-02-23T13:31:24;99927.30;;;14.23;59.39
74403;BME280;62837;51.082;13.744;2023-02-23T13:33:57;99930.73;;;14.21;59.55
74403;BME280;62837;51.082;13.744;2023-02-23T13:36:31;99926.73;;;14.19;59.28
74403;BME280;62837;51.082;13.744;2023-02-23T13:42:16;99926.48;;;14.11;59.47
74403;BME280;62837;51.082;13.744;2023-02-23T13:44:52;99925.03;;;14.08;59.84
74403;BME280;62837;51.082;13.744;2023-02-23T13:47:34;99925.48;;;14.03;60.33
74403;BME280;62837;51.082;13.744;2023-02-23T13:50:17;99927.67;;;13.97;60.70
74403;BME280;62837;51.082;13.744;2023-02-23T13:52:53;99924.39;;;13.90;60.92
74403;BME280;62837;51.082;13.744;2023-02-23T13:55:47;99925.05;;;13.85;60.95